sensor_id;sensor_type;location;lat;lon;timestamp;pressure;altitude;pressure_sealevel;temperature;humidity
37972;BME280;23794;48.234;8.344;2023-04-24T00:01:04;93318.53;;;8.71;73.88
37972;BME280;23794;48.234;8.344;2023-04-24T00:03:34;93333.78;;;8.68;72.67
37972;BME280;23794;48.234;8.344;2023-04-24T00:06:01;93331.47;;;8.67;72.93
37972;BME280;23794;48.234;8.344;2023-04-24T00:08:29;93325.72;;;8.58;72.87
37972;BME280;23794;48.234;8.344;2023-04-24T00:10:55;93319.84;;;8.63;71.27
37972;BME280;23794;48.234;8.344;2023-04-24T00:13:22;93329.59;;;8.60;72.58
37972;BME280;23794;48.234;8.344;2023-04-24T00:15:49;93337.53;;;8.51;73.65
37972;BME280;23794;48.234;8.344;2023-04-24T00:18:15;93335.19;;;8.49;73.59
37972;BME280;23794;48.234;8.344;2023-04-24T00:20:42;93339.56;;;8.43;74.27
37972;BME280;23794;48.234;8.344;2023-04-24T00:23:10;93333.38;;;8.39;74.36
37972;BME280;23794;48.234;8.344;2023-04-24T00:25:36;93337.28;;;8.38;75.03
37972;BME280;23794;48.234;8.344;2023-04-24T00:28:06;93331.78;;;8.42;74.32
37972;BME280;23794;48.234;8.344;2023-04-24T00:30:33;93331.00;;;8.41;74.07
37972;BME280;23794;48.234;8.344;2023-04-24T00:33:00;93325.94;;;8.40;74.71
37972;BME280;23794;48.234;8.344;2023-04-24T00:35:26;93323.19;;;8.43;75.19
37972;BME280;23794;48.234;8.344;2023-04-24T00:37:53;93329.81;;;8.42;74.29
37972;BME280;23794;48.234;8.344;2023-04-24T00:40:20;93323.56;;;8.45;75.15
37972;BME280;23794;48.234;8.344;2023-04-24T00:42:47;93336.03;;;8.46;75.50
37972;BME280;23794;48.234;8.344;2023-04-24T00:45:14;93327.00;;;8.49;75.05
37972;BME280;23794;48.234;8.344;2023-04-24T00:47:41;93320.69;;;8.56;73.44
37972;BME280;23794;48.234;8.344;2023-04-24T00:50:08;93318.34;;;8.58;74.02
37972;BME280;23794;48.234;8.344;2023-04-24T00:52:35;93320.69;;;8.56;74.30
37972;BME280;23794;48.234;8.344;2023-04-24T00:55:02;93319.50;;;8.57;75.31
37972;BME280;23794;48.234;8.344;2023-04-24T00:57:30;93315.94;;;8.60;74.52
37972;BME280;23794;48.234;8.344;2023-04-24T00:59:56;93308.91;;;8.63;73.66
37972;BME280;23794;48.234;8.344;2023-04-24T01:02:24;93308.13;;;8.62;74.18
37972;BME280;23794;48.234;8.344;2023-04-24T01:04:51;93306.91;;;8.67;73.91
37972;BME280;23794;48.234;8.344;2023-04-24T01:07:21;93308.03;;;8.70;73.96
37972;BME280;23794;48.234;8.344;2023-04-24T01:09:50;93309.25;;;8.65;73.71
37972;BME280;23794;48.234;8.344;2023-04-24T01:12:19;93312.00;;;8.65;74.17
37972;BME280;23794;48.234;8.344;2023-04-24T01:14:45;93303.41;;;8.66;74.46
37972;BME280;23794;48.234;8.344;2023-04-24T01:17:14;93309.97;;;8.73;74.35
37972;BME280;23794;48.234;8.344;2023-04-24T01:19:41;93306.91;;;8.67;74.49
37972;BME280;23794;48.234;8.344;2023-04-24T01:22:13;93298.44;;;8.58;75.55
37972;BME280;23794;48.234;8.344;2023-04-24T01:24:41;93296.84;;;8.60;75.28
37972;BME280;23794;48.234;8.344;2023-04-24T01:27:11;93305.03;;;8.60;75.33
37972;BME280;23794;48.234;8.344;2023-04-24T01:29:38;93303.81;;;8.65;74.94
37972;BME280;23794;48.234;8.344;2023-04-24T01:32:05;93300.31;;;8.64;75.01
37972;BME280;23794;48.234;8.344;2023-04-24T01:34:32;93302.63;;;8.66;74.32
37972;BME280;23794;48.234;8.344;2023-04-24T01:36:59;93289.38;;;8.64;75.08
37972;BME280;23794;48.234;8.344;2023-04-24T01:39:26;93292.97;;;8.58;75.78
37972;BME280;23794;48.234;8.344;2023-04-24T01:41:55;93293.44;;;8.52;76.44
37972;BME280;23794;48.234;8.344;2023-04-24T01:44:22;93290.72;;;8.52;75.22
37972;BME280;23794;48.234;8.344;2023-04-24T01:46:49;93282.28;;;8.40;76.27
37972;BME280;23794;48.234;8.344;2023-04-24T01:49:16;93289.84;;;8.28;76.73
37972;BME280;23794;48.234;8.344;2023-04-24T01:51:44;93298.50;;;8.19;76.85
37972;BME280;23794;48.234;8.344;2023-04-24T01:54:11;93296.53;;;8.24;76.28
37972;BME280;23794;48.234;8.344;2023-04-24T01:56:41;93294.41;;;8.04;76.95
37972;BME280;23794;48.234;8.344;2023-04-24T01:59:10;93292.47;;;8.04;76.71
37972;BME280;23794;48.234;8.344;2023-04-24T02:01:38;93291.75;;;7.97;77.19
37972;BME280;23794;48.234;8.344;2023-04-24T02:04:06;93296.91;;;7.91;77.11
37972;BME280;23794;48.234;8.344;2023-04-24T02:06:34;93304.47;;;7.72;77.42
37972;BME280;23794;48.234;8.344;2023-04-24T02:09:01;93298.72;;;7.63;77.87
37972;BME280;23794;48.234;8.344;2023-04-24T02:11:29;93299.25;;;7.47;78.15
37972;BME280;23794;48.234;8.344;2023-04-24T02:13:57;93299.25;;;7.47;78.37
37972;BME280;23794;48.234;8.344;2023-04-24T02:16:24;93294.56;;;7.44;78.33
37972;BME280;23794;48.234;8.344;2023-04-24T02:18:51;93291.47;;;7.46;78.21
37972;BME280;23794;48.234;8.344;2023-04-24T02:21:17;93295.34;;;7.45;78.49
37972;BME280;23794;48.234;8.344;2023-04-24T02:23:44;93307.81;;;7.46;78.16
37972;BME280;23794;48.234;8.344;2023-04-24T02:26:12;93307.00;;;7.49;78.11
37972;BME280;23794;48.234;8.344;2023-04-24T02:28:38;93310.09;;;7.54;77.99
37972;BME280;23794;48.234;8.344;2023-04-24T02:31:05;93312.41;;;7.56;78.25
37972;BME280;23794;48.234;8.344;2023-04-24T02:37:08;93309.59;;;7.63;78.08
37972;BME280;23794;48.234;8.344;2023-04-24T02:39:35;93307.66;;;7.64;78.60
37972;BME280;23794;48.234;8.344;2023-04-24T02:42:02;93302.19;;;7.67;77.65
37972;BME280;23794;48.234;8.344;2023-04-24T02:44:29;93291.63;;;7.69;77.59
37972;BME280;23794;48.234;8.344;2023-04-24T02:46:56;93301.78;;;7.69;77.93
37972;BME280;23794;48.234;8.344;2023-04-24T02:49:22;93304.09;;;7.70;78.36
37972;BME280;23794;48.234;8.344;2023-04-24T02:51:49;93313.38;;;7.77;78.73
37972;BME280;23794;48.234;8.344;2023-04-24T02:54:16;93309.34;;;7.88;79.15
37972;BME280;23794;48.234;8.344;2023-04-24T02:56:42;93307.41;;;7.89;78.30
37972;BME280;23794;48.234;8.344;2023-04-24T02:59:09;93313.25;;;7.87;79.00
37972;BME280;23794;48.234;8.344;2023-04-24T03:01:36;93312.47;;;7.91;78.79
37972;BME280;23794;48.234;8.344;2023-04-24T03:04:03;93311.31;;;7.88;79.28
37972;BME280;23794;48.234;8.344;2023-04-24T03:06:30;93324.16;;;7.91;78.61
37972;BME280;23794;48.234;8.344;2023-04-24T03:08:59;93317.50;;;7.92;78.92
37972;BME280;23794;48.234;8.344;2023-04-24T03:11:25;93311.28;;;7.92;79.26
37972;BME280;23794;48.234;8.344;2023-04-24T03:13:52;93310.19;;;7.85;78.56
37972;BME280;23794;48.234;8.344;2023-04-24T03:16:18;93307.09;;;7.83;78.68
37972;BME280;23794;48.234;8.344;2023-04-24T03:18:45;93299.38;;;7.75;80.13
37972;BME280;23794;48.234;8.344;2023-04-24T03:21:13;93292.38;;;7.74;79.07
37972;BME280;23794;48.234;8.344;2023-04-24T03:23:40;93297.44;;;7.75;79.12
37972;BME280;23794;48.234;8.344;2023-04-24T03:26:08;93294.69;;;7.75;79.12
37972;BME280;23794;48.234;8.344;2023-04-24T03:28:40;93288.56;;;7.67;78.95
37972;BME280;23794;48.234;8.344;2023-04-24T03:31:07;93289.47;;;7.53;78.88
37972;BME280;23794;48.234;8.344;2023-04-24T03:33:36;93293.38;;;7.49;79.41
37972;BME280;23794;48.234;8.344;2023-04-24T03:36:03;93287.19;;;7.48;79.90
37972;BME280;23794;48.234;8.344;2023-04-24T03:38:39;93282.53;;;7.41;79.65
37972;BME280;23794;48.234;8.344;2023-04-24T03:41:18;93288.38;;;7.40;79.45
37972;BME280;23794;48.234;8.344;2023-04-24T03:43:49;93290.66;;;7.45;79.23
37972;BME280;23794;48.234;8.344;2023-04-24T03:46:15;93296.94;;;7.42;79.92
37972;BME280;23794;48.234;8.344;2023-04-24T03:48:52;93298.09;;;7.45;79.94
37972;BME280;23794;48.234;8.344;2023-04-24T03:51:22;93299.25;;;7.47;80.57
37972;BME280;23794;48.234;8.344;2023-04-24T03:53:53;93304.69;;;7.44;80.97
37972;BME280;23794;48.234;8.344;2023-04-24T03:56:21;93313.59;;;7.51;79.78
37972;BME280;23794;48.234;8.344;2023-04-24T03:58:48;93332.22;;;7.60;79.90
37972;BME280;23794;48.234;8.344;2023-04-24T04:01:15;93315.53;;;7.54;79.92
37972;BME280;23794;48.234;8.344;2023-04-24T04:03:51;93354.13;;;7.46;78.95
37972;BME280;23794;48.234;8.344;2023-04-24T04:06:21;93359.75;;;7.17;75.80
37972;BME280;23794;48.234;8.344;2023-04-24T04:08:50;93362.34;;;6.71;74.96
37972;BME280;23794;48.234;8.344;2023-04-24T04:11:17;93365.13;;;6.60;76.78
37972;BME280;23794;48.234;8.344;2023-04-24T04:13:44;93370.66;;;6.42;76.68
37972;BME280;23794;48.234;8.344;2023-04-24T04:16:12;93372.63;;;6.38;77.74
37972;BME280;23794;48.234;8.344;2023-04-24T04:18:39;93383.50;;;6.35;77.35
37972;BME280;23794;48.234;8.344;2023-04-24T04:21:06;93388.94;;;6.35;77.70
37972;BME280;23794;48.234;8.344;2023-04-24T04:23:34;93396.31;;;6.38;78.36
37972;BME280;23794;48.234;8.344;2023-04-24T04:26:07;93399.84;;;6.35;78.29
37972;BME280;23794;48.234;8.344;2023-04-24T04:28:47;93397.88;;;6.39;78.80
37972;BME280;23794;48.234;8.344;2023-04-24T04:31:15;93404.16;;;6.10;78.53
37972;BME280;23794;48.234;8.344;2023-04-24T04:33:42;93397.94;;;6.06;80.06
37972;BME280;23794;48.234;8.344;2023-04-24T04:36:09;93401.84;;;6.05;79.83
37972;BME280;23794;48.234;8.344;2023-04-24T04:38:41;93397.19;;;6.13;80.44
37972;BME280;23794;48.234;8.344;2023-04-24T04:41:35;93405.31;;;6.17;80.14
37972;BME280;23794;48.234;8.344;2023-04-24T04:44:02;93408.03;;;6.17;80.17
37972;BME280;23794;48.234;8.344;2023-04-24T04:46:31;93404.91;;;6.22;79.61
37972;BME280;23794;48.234;8.344;2023-04-24T04:49:13;93410.75;;;6.24;79.03
37972;BME280;23794;48.234;8.344;2023-04-24T04:51:43;93413.81;;;6.29;79.73
37972;BME280;23794;48.234;8.344;2023-04-24T04:54:11;93420.44;;;6.36;79.20
37972;BME280;23794;48.234;8.344;2023-04-24T04:56:38;93426.63;;;6.36;79.96
37972;BME280;23794;48.234;8.344;2023-04-24T04:59:04;93420.03;;;6.37;78.72
37972;BME280;23794;48.234;8.344;2023-04-24T05:01:36;93428.22;;;6.30;80.12
37972;BME280;23794;48.234;8.344;2023-04-24T05:04:05;93423.91;;;6.40;80.55
37972;BME280;23794;48.234;8.344;2023-04-24T05:06:32;93424.25;;;6.53;80.03
37972;BME280;23794;48.234;8.344;2023-04-24T05:08:59;93425.78;;;6.61;79.95
37972;BME280;23794;48.234;8.344;2023-04-24T05:11:33;93435.13;;;6.60;80.30
37972;BME280;23794;48.234;8.344;2023-04-24T05:14:01;93440.53;;;6.71;79.53
37972;BME280;23794;48.234;8.344;2023-04-24T05:16:36;93446.72;;;6.71;79.99
37972;BME280;23794;48.234;8.344;2023-04-24T05:19:04;93441.22;;;6.86;79.13
37972;BME280;23794;48.234;8.344;2023-04-24T05:21:38;93445.09;;;6.96;79.35
37972;BME280;23794;48.234;8.344;2023-04-24T05:24:06;93452.81;;;7.08;78.88
37972;BME280;23794;48.234;8.344;2023-04-24T05:26:44;93445.69;;;7.29;78.08
37972;BME280;23794;48.234;8.344;2023-04-24T05:29:13;93452.25;;;7.35;78.52
37972;BME280;23794;48.234;8.344;2023-04-24T05:31:41;93445.97;;;7.45;77.72
37972;BME280;23794;48.234;8.344;2023-04-24T05:34:08;93444.03;;;7.53;77.87
37972;BME280;23794;48.234;8.344;2023-04-24T05:36:38;93447.47;;;7.61;76.31
37972;BME280;23794;48.234;8.344;2023-04-24T05:39:05;93452.91;;;7.64;76.20
37972;BME280;23794;48.234;8.344;2023-04-24T05:41:34;93448.59;;;7.67;76.75
37972;BME280;23794;48.234;8.344;2023-04-24T05:44:00;93450.53;;;7.70;76.35
37972;BME280;23794;48.234;8.344;2023-04-24T05:46:27;93466.13;;;7.62;77.18
37972;BME280;23794;48.234;8.344;2023-04-24T05:48:55;93465.00;;;7.60;76.30
37972;BME280;23794;48.234;8.344;2023-04-24T05:51:21;93458.81;;;7.55;78.49
37972;BME280;23794;48.234;8.344;2023-04-24T05:53:48;93448.59;;;7.67;77.14
37972;BME280;23794;48.234;8.344;2023-04-24T05:56:15;93451.69;;;7.69;77.16
37972;BME280;23794;48.234;8.344;2023-04-24T05:58:41;93462.59;;;7.69;77.42
37972;BME280;23794;48.234;8.344;2023-04-24T06:01:08;93455.50;;;7.79;76.91
37972;BME280;23794;48.234;8.344;2023-04-24T06:03:38;93463.19;;;7.95;75.56
37972;BME280;23794;48.234;8.344;2023-04-24T06:06:07;93469.00;;;7.97;75.70
37972;BME280;23794;48.234;8.344;2023-04-24T06:08:35;93468.22;;;8.00;75.46
37972;BME280;23794;48.234;8.344;2023-04-24T06:11:02;93473.66;;;8.00;74.89
37972;BME280;23794;48.234;8.344;2023-04-24T06:13:31;93464.38;;;7.94;75.27
37972;BME280;23794;48.234;8.344;2023-04-24T06:16:20;93472.13;;;7.99;75.68
37972;BME280;23794;48.234;8.344;2023-04-24T06:18:53;93470.47;;;8.09;75.73
37972;BME280;23794;48.234;8.344;2023-04-24T06:21:21;93477.88;;;8.12;74.82
37972;BME280;23794;48.234;8.344;2023-04-24T06:23:49;93470.41;;;8.16;76.02
37972;BME280;23794;48.234;8.344;2023-04-24T06:26:16;93471.94;;;8.20;75.35
37972;BME280;23794;48.234;8.344;2023-04-24T06:28:42;93479.34;;;8.20;75.61
37972;BME280;23794;48.234;8.344;2023-04-24T06:31:09;93476.66;;;8.16;74.66
37972;BME280;23794;48.234;8.344;2023-04-24T06:33:35;93470.09;;;8.07;76.18
37972;BME280;23794;48.234;8.344;2023-04-24T06:36:02;93476.66;;;8.16;75.44
37972;BME280;23794;48.234;8.344;2023-04-24T06:38:30;93473.63;;;8.03;75.63
37972;BME280;23794;48.234;8.344;2023-04-24T06:40:56;93481.94;;;7.89;75.54
37972;BME280;23794;48.234;8.344;2023-04-24T06:43:23;93496.41;;;7.79;76.59
37972;BME280;23794;48.234;8.344;2023-04-24T06:45:49;93498.94;;;7.48;75.54
37972;BME280;23794;48.234;8.344;2023-04-24T06:48:16;93504.91;;;7.17;76.78
37972;BME280;23794;48.234;8.344;2023-04-24T06:50:43;93520.19;;;6.86;77.16
37972;BME280;23794;48.234;8.344;2023-04-24T06:53:09;93510.53;;;6.59;76.79
37972;BME280;23794;48.234;8.344;2023-04-24T06:55:37;93519.09;;;6.58;77.52
37972;BME280;23794;48.234;8.344;2023-04-24T06:58:04;93512.09;;;6.53;77.01
37972;BME280;23794;48.234;8.344;2023-04-24T07:00:31;93518.72;;;6.45;77.67
37972;BME280;23794;48.234;8.344;2023-04-24T07:02:58;93512.09;;;6.60;77.88
37972;BME280;23794;48.234;8.344;2023-04-24T07:05:24;93520.63;;;6.70;77.83
37972;BME280;23794;48.234;8.344;2023-04-24T07:07:51;93515.13;;;6.88;77.56
37972;BME280;23794;48.234;8.344;2023-04-24T07:10:18;93523.63;;;7.08;77.49
37972;BME280;23794;48.234;8.344;2023-04-24T07:12:44;93518.06;;;7.30;77.20
37972;BME280;23794;48.234;8.344;2023-04-24T07:15:11;93513.75;;;7.36;76.27
37972;BME280;23794;48.234;8.344;2023-04-24T07:17:37;93518.47;;;7.32;76.67
37972;BME280;23794;48.234;8.344;2023-04-24T07:20:05;93528.25;;;7.18;75.76
37972;BME280;23794;48.234;8.344;2023-04-24T07:22:33;93510.38;;;7.14;76.21
37972;BME280;23794;48.234;8.344;2023-04-24T07:25:00;93522.44;;;7.09;76.47
37972;BME280;23794;48.234;8.344;2023-04-24T07:27:27;93536.06;;;7.09;76.26
37972;BME280;23794;48.234;8.344;2023-04-24T07:29:54;93531.31;;;7.28;76.55
37972;BME280;23794;48.234;8.344;2023-04-24T07:32:20;93528.91;;;7.44;76.43
37972;BME280;23794;48.234;8.344;2023-04-24T07:34:47;93533.06;;;7.74;74.60
37972;BME280;23794;48.234;8.344;2023-04-24T07:37:13;93528.75;;;7.73;73.86
37972;BME280;23794;48.234;8.344;2023-04-24T07:39:40;93544.88;;;7.53;75.05
37972;BME280;23794;48.234;8.344;2023-04-24T07:42:07;93545.28;;;7.40;74.95
37972;BME280;23794;48.234;8.344;2023-04-24T07:44:33;93542.94;;;7.39;75.53
37972;BME280;23794;48.234;8.344;2023-04-24T07:47:00;93547.53;;;7.64;74.77
37972;BME280;23794;48.234;8.344;2023-04-24T07:49:26;93543.91;;;7.81;74.16
37972;BME280;23794;48.234;8.344;2023-04-24T07:51:54;93548.50;;;7.95;73.47
37972;BME280;23794;48.234;8.344;2023-04-24T07:54:20;93551.91;;;8.07;70.96
37972;BME280;23794;48.234;8.344;2023-04-24T07:56:48;93551.81;;;8.25;71.14
37972;BME280;23794;48.234;8.344;2023-04-24T07:59:14;93561.41;;;8.44;71.65
37972;BME280;23794;48.234;8.344;2023-04-24T08:01:41;93567.31;;;8.35;69.99
37972;BME280;23794;48.234;8.344;2023-04-24T08:04:07;93561.03;;;8.42;71.42
37972;BME280;23794;48.234;8.344;2023-04-24T08:06:34;93567.38;;;8.73;71.34
37972;BME280;23794;48.234;8.344;2023-04-24T08:09:01;93584.47;;;8.81;70.45
37972;BME280;23794;48.234;8.344;2023-04-24T08:11:28;93579.72;;;8.89;71.21
37972;BME280;23794;48.234;8.344;2023-04-24T08:13:54;93588.22;;;8.52;71.14
37972;BME280;23794;48.234;8.344;2023-04-24T08:16:21;93595.09;;;8.23;71.76
37972;BME280;23794;48.234;8.344;2023-04-24T08:18:50;93592.53;;;7.97;70.34
37972;BME280;23794;48.234;8.344;2023-04-24T08:21:16;93616.69;;;7.95;70.23
37972;BME280;23794;48.234;8.344;2023-04-24T08:23:45;93605.41;;;7.90;71.32
37972;BME280;23794;48.234;8.344;2023-04-24T08:26:12;93606.69;;;7.67;70.08
37972;BME280;23794;48.234;8.344;2023-04-24T08:28:39;93605.22;;;7.48;71.49
37972;BME280;23794;48.234;8.344;2023-04-24T08:31:06;93601.69;;;7.58;71.33
37972;BME280;23794;48.234;8.344;2023-04-24T08:33:32;93611.00;;;7.61;70.47
37972;BME280;23794;48.234;8.344;2023-04-24T08:36:05;93613.69;;;7.68;70.22
37972;BME280;23794;48.234;8.344;2023-04-24T08:38:32;93604.25;;;7.91;70.93
37972;BME280;23794;48.234;8.344;2023-04-24T08:41:01;93597.03;;;8.18;68.99
37972;BME280;23794;48.234;8.344;2023-04-24T08:43:27;93604.63;;;8.49;69.11
37972;BME280;23794;48.234;8.344;2023-04-24T08:45:56;93611.13;;;8.66;68.90
37972;BME280;23794;48.234;8.344;2023-04-24T08:48:23;93607.97;;;8.67;68.57
37972;BME280;23794;48.234;8.344;2023-04-24T08:50:58;93621.00;;;8.98;68.09
37972;BME280;23794;48.234;8.344;2023-04-24T08:53:27;93620.31;;;9.25;65.03
37972;BME280;23794;48.234;8.344;2023-04-24T08:55:55;93631.97;;;9.33;66.87
37972;BME280;23794;48.234;8.344;2023-04-24T08:58:25;93639.22;;;9.08;66.22
37972;BME280;23794;48.234;8.344;2023-04-24T09:00:54;93636.94;;;9.03;65.54
37972;BME280;23794;48.234;8.344;2023-04-24T09:03:21;93634.25;;;8.99;64.49
37972;BME280;23794;48.234;8.344;2023-04-24T09:05:49;93641.84;;;9.23;65.02
37972;BME280;23794;48.234;8.344;2023-04-24T09:08:18;93640.59;;;9.27;65.91
37972;BME280;23794;48.234;8.344;2023-04-24T09:10:45;93639.84;;;9.27;63.42
37972;BME280;23794;48.234;8.344;2023-04-24T09:13:16;93642.75;;;9.09;64.80
37972;BME280;23794;48.234;8.344;2023-04-24T09:15:42;93649.81;;;9.06;66.30
37972;BME280;23794;48.234;8.344;2023-04-24T09:18:09;93658.47;;;8.94;64.50
37972;BME280;23794;48.234;8.344;2023-04-24T09:23:28;93668.03;;;8.71;65.84
37972;BME280;23794;48.234;8.344;2023-04-24T09:25:55;93670.31;;;8.80;66.01
37972;BME280;23794;48.234;8.344;2023-04-24T09:28:36;93675.06;;;8.68;65.59
37972;BME280;23794;48.234;8.344;2023-04-24T09:33:30;93673.06;;;9.22;65.13
37972;BME280;23794;48.234;8.344;2023-04-24T09:35:57;93680.78;;;9.72;62.45
37972;BME280;23794;48.234;8.344;2023-04-24T09:38:38;93668.13;;;9.86;59.37
37972;BME280;23794;48.234;8.344;2023-04-24T09:41:06;93671.13;;;9.95;60.75
37972;BME280;23794;48.234;8.344;2023-04-24T09:43:34;93679.81;;;9.90;58.55
37972;BME280;23794;48.234;8.344;2023-04-24T09:46:06;93682.56;;;10.21;61.31
37972;BME280;23794;48.234;8.344;2023-04-24T09:48:34;93690.31;;;10.53;60.29
37972;BME280;23794;48.234;8.344;2023-04-24T09:51:03;93684.25;;;10.66;57.67
37972;BME280;23794;48.234;8.344;2023-04-24T09:53:30;93693.84;;;10.23;54.83
37972;BME280;23794;48.234;8.344;2023-04-24T09:56:07;93697.28;;;10.00;56.08
37972;BME280;23794;48.234;8.344;2023-04-24T09:58:37;93690.81;;;10.17;57.94
37972;BME280;23794;48.234;8.344;2023-04-24T10:01:03;93694.06;;;10.36;57.37
37972;BME280;23794;48.234;8.344;2023-04-24T10:03:32;93691.88;;;9.92;57.97
37972;BME280;23794;48.234;8.344;2023-04-24T10:06:00;93722.97;;;9.71;57.37
37972;BME280;23794;48.234;8.344;2023-04-24T10:08:33;93715.78;;;9.85;56.98
37972;BME280;23794;48.234;8.344;2023-04-24T10:11:00;93709.66;;;9.77;57.58
37972;BME280;23794;48.234;8.344;2023-04-24T10:13:27;93719.25;;;9.92;56.87
37972;BME280;23794;48.234;8.344;2023-04-24T10:15:54;93731.91;;;9.79;56.98
37972;BME280;23794;48.234;8.344;2023-04-24T10:18:23;93726.34;;;9.48;59.03
37972;BME280;23794;48.234;8.344;2023-04-24T10:20:50;93733.94;;;9.26;58.19
37972;BME280;23794;48.234;8.344;2023-04-24T10:23:18;93732.88;;;9.12;58.63
37972;BME280;23794;48.234;8.344;2023-04-24T10:25:46;93727.50;;;9.02;58.78
37972;BME280;23794;48.234;8.344;2023-04-24T10:28:13;93728.69;;;9.01;57.89
37972;BME280;23794;48.234;8.344;2023-04-24T10:30:42;93735.91;;;9.25;60.50
37972;BME280;23794;48.234;8.344;2023-04-24T10:33:09;93724.06;;;9.39;57.80
37972;BME280;23794;48.234;8.344;2023-04-24T10:35:40;93729.50;;;9.81;58.16
37972;BME280;23794;48.234;8.344;2023-04-24T10:38:09;93729.06;;;9.90;56.80
37972;BME280;23794;48.234;8.344;2023-04-24T10:40:37;93729.97;;;10.10;57.74
37972;BME280;23794;48.234;8.344;2023-04-24T10:43:08;93728.78;;;10.12;55.22
37972;BME280;23794;48.234;8.344;2023-04-24T10:45:38;93723.16;;;10.26;57.58
37972;BME280;23794;48.234;8.344;2023-04-24T10:48:07;93720.59;;;10.43;57.46
37972;BME280;23794;48.234;8.344;2023-04-24T10:50:53;93733.84;;;10.44;54.89
37972;BME280;23794;48.234;8.344;2023-04-24T10:53:22;93729.56;;;10.43;54.69
37972;BME280;23794;48.234;8.344;2023-04-24T10:55:51;93735.41;;;10.45;56.65
37972;BME280;23794;48.234;8.344;2023-04-24T10:58:22;93741.03;;;10.34;56.81
37972;BME280;23794;48.234;8.344;2023-04-24T11:00:57;93743.19;;;10.16;55.51
37972;BME280;23794;48.234;8.344;2023-04-24T11:03:29;93740.47;;;10.16;54.47
37972;BME280;23794;48.234;8.344;2023-04-24T11:06:02;93745.41;;;9.93;55.03
37972;BME280;23794;48.234;8.344;2023-04-24T11:08:37;93745.25;;;9.73;53.02
37972;BME280;23794;48.234;8.344;2023-04-24T11:11:12;93744.78;;;9.33;54.06
37972;BME280;23794;48.234;8.344;2023-04-24T11:14:01;93750.88;;;9.06;53.68
37972;BME280;23794;48.234;8.344;2023-04-24T11:16:40;93768.97;;;8.82;55.10
37972;BME280;23794;48.234;8.344;2023-04-24T11:21:48;93772.50;;;8.82;56.05
37972;BME280;23794;48.234;8.344;2023-04-24T11:37:33;93784.47;;;8.99;54.65
37972;BME280;23794;48.234;8.344;2023-04-24T11:40:00;93790.91;;;8.71;54.88
37972;BME280;23794;48.234;8.344;2023-04-24T11:42:29;93794.81;;;8.70;55.20
37972;BME280;23794;48.234;8.344;2023-04-24T11:44:59;93792.84;;;8.74;57.92
37972;BME280;23794;48.234;8.344;2023-04-24T11:47:31;93796.41;;;8.60;55.37
37972;BME280;23794;48.234;8.344;2023-04-24T11:50:00;93798.47;;;8.42;55.94
37972;BME280;23794;48.234;8.344;2023-04-24T11:52:29;93798.81;;;8.51;56.66
37972;BME280;23794;48.234;8.344;2023-04-24T11:54:56;93784.78;;;8.52;55.65
37972;BME280;23794;48.234;8.344;2023-04-24T11:57:24;93786.63;;;8.74;55.48
37972;BME280;23794;48.234;8.344;2023-04-24T11:59:54;93778.91;;;9.14;54.99
37972;BME280;23794;48.234;8.344;2023-04-24T12:02:24;93775.34;;;9.70;53.61
37972;BME280;23794;48.234;8.344;2023-04-24T12:04:52;93771.44;;;10.44;52.40
37972;BME280;23794;48.234;8.344;2023-04-24T12:07:20;93772.13;;;10.79;50.77
37972;BME280;23794;48.234;8.344;2023-04-24T12:09:49;93771.91;;;10.97;50.03
37972;BME280;23794;48.234;8.344;2023-04-24T12:12:25;93767.56;;;10.96;50.52
37972;BME280;23794;48.234;8.344;2023-04-24T12:14:57;93770.31;;;10.68;52.33
37972;BME280;23794;48.234;8.344;2023-04-24T12:17:27;93771.81;;;10.42;50.47
37972;BME280;23794;48.234;8.344;2023-04-24T12:19:59;93765.22;;;10.39;51.69
37972;BME280;23794;48.234;8.344;2023-04-24T12:22:27;93765.03;;;10.54;50.67
37972;BME280;23794;48.234;8.344;2023-04-24T12:25:12;93753.41;;;11.04;49.45
37972;BME280;23794;48.234;8.344;2023-04-24T12:27:39;93743.66;;;11.27;48.57
37972;BME280;23794;48.234;8.344;2023-04-24T12:30:11;93742.84;;;11.03;48.17
37972;BME280;23794;48.234;8.344;2023-04-24T12:32:43;93740.94;;;11.24;47.85
37972;BME280;23794;48.234;8.344;2023-04-24T12:35:10;93752.03;;;10.89;48.34
37972;BME280;23794;48.234;8.344;2023-04-24T12:37:36;93754.25;;;11.25;47.65
37972;BME280;23794;48.234;8.344;2023-04-24T12:40:08;93755.09;;;11.46;47.95
37972;BME280;23794;48.234;8.344;2023-04-24T12:42:36;93755.50;;;11.44;48.23
37972;BME280;23794;48.234;8.344;2023-04-24T12:45:08;93755.31;;;11.31;48.78
37972;BME280;23794;48.234;8.344;2023-04-24T12:47:34;93757.00;;;11.25;49.51
37972;BME280;23794;48.234;8.344;2023-04-24T12:50:01;93760.31;;;11.13;48.53
37972;BME280;23794;48.234;8.344;2023-04-24T12:52:29;93753.63;;;10.86;48.78
37972;BME280;23794;48.234;8.344;2023-04-24T12:54:58;93761.19;;;10.48;50.63
37972;BME280;23794;48.234;8.344;2023-04-24T12:57:26;93777.97;;;10.19;51.17
37972;BME280;23794;48.234;8.344;2023-04-24T12:59:54;93771.25;;;9.89;51.47
37972;BME280;23794;48.234;8.344;2023-04-24T13:02:22;93770.59;;;9.77;51.80
37972;BME280;23794;48.234;8.344;2023-04-24T13:04:49;93770.63;;;9.74;52.22
37972;BME280;23794;48.234;8.344;2023-04-24T13:07:16;93783.88;;;9.79;51.79
37972;BME280;23794;48.234;8.344;2023-04-24T13:09:44;93782.69;;;9.76;51.81
37972;BME280;23794;48.234;8.344;2023-04-24T13:12:11;93783.47;;;9.81;52.25
37972;BME280;23794;48.234;8.344;2023-04-24T13:14:38;93781.94;;;9.76;51.64
37972;BME280;23794;48.234;8.344;2023-04-24T13:17:05;93785.31;;;9.91;53.10
37972;BME280;23794;48.234;8.344;2023-04-24T13:19:36;93777.38;;;10.00;50.67
37972;BME280;23794;48.234;8.344;2023-04-24T13:22:03;93781.00;;;10.28;50.56
37972;BME280;23794;48.234;8.344;2023-04-24T13:24:30;93780.63;;;10.57;49.89
37972;BME280;23794;48.234;8.344;2023-04-24T13:26:58;93775.53;;;10.59;49.20
37972;BME280;23794;48.234;8.344;2023-04-24T13:29:24;93776.25;;;10.63;49.12
37972;BME280;23794;48.234;8.344;2023-04-24T13:31:51;93774.28;;;10.64;49.57
37972;BME280;23794;48.234;8.344;2023-04-24T13:34:18;93778.19;;;10.66;50.00
37972;BME280;23794;48.234;8.344;2023-04-24T13:36:44;93771.84;;;10.69;49.16
37972;BME280;23794;48.234;8.344;2023-04-24T13:39:11;93777.72;;;10.71;50.54
37972;BME280;23794;48.234;8.344;2023-04-24T13:41:38;93774.50;;;10.77;51.02